sensor_id;sensor_type;location;lat;lon;timestamp;P1;durP1;ratioP1;P2;durP2;ratioP2
4174;SDS011;2101;48.290;14.382;2023-05-14T00:01:14;12.80;;;1.20;;
4174;SDS011;2101;48.290;14.382;2023-05-14T00:03:42;12.97;;;1.67;;
4174;SDS011;2101;48.290;14.382;2023-05-14T00:09:17;14.07;;;2.20;;
4174;SDS011;2101;48.290;14.382;2023-05-14T00:12:09;13.20;;;1.60;;
4174;SDS011;2101;48.290;14.382;2023-05-14T00:18:17;13.40;;;1.70;;
4174;SDS011;2101;48.290;14.382;2023-05-14T00:20:52;13.27;;;2.13;;
4174;SDS011;2101;48.290;14.382;2023-05-14T00:29:33;13.53;;;1.73;;
4174;SDS011;2101;48.290;14.382;2023-05-14T00:32:22;14.33;;;1.70;;
4174;SDS011;2101;48.290;14.382;2023-05-14T00:35:11;14.53;;;1.90;;
4174;SDS011;2101;48.290;14.382;2023-05-14T00:38:45;14.07;;;1.80;;
4174;SDS011;2101;48.290;14.382;2023-05-14T00:41:41;14.47;;;2.00;;
4174;SDS011;2101;48.290;14.382;2023-05-14T00:44:35;12.90;;;1.97;;
4174;SDS011;2101;48.290;14.382;2023-05-14T00:47:23;13.50;;;2.10;;
4174;SDS011;2101;48.290;14.382;2023-05-14T00:50:16;13.50;;;2.20;;
4174;SDS011;2101;48.290;14.382;2023-05-14T00:53:31;14.57;;;2.00;;
4174;SDS011;2101;48.290;14.382;2023-05-14T00:56:19;15.30;;;2.23;;
4174;SDS011;2101;48.290;14.382;2023-05-14T00:59:08;14.17;;;1.87;;
4174;SDS011;2101;48.290;14.382;2023-05-14T01:16:32;13.90;;;2.10;;
4174;SDS011;2101;48.290;14.382;2023-05-14T01:22:32;15.23;;;2.70;;
4174;SDS011;2101;48.290;14.382;2023-05-14T01:28:59;13.00;;;1.90;;
4174;SDS011;2101;48.290;14.382;2023-05-14T01:32:09;13.80;;;2.23;;
4174;SDS011;2101;48.290;14.382;2023-05-14T01:38:22;15.80;;;2.27;;
4174;SDS011;2101;48.290;14.382;2023-05-14T01:41:22;13.93;;;2.17;;
4174;SDS011;2101;48.290;14.382;2023-05-14T01:44:04;14.23;;;2.20;;
4174;SDS011;2101;48.290;14.382;2023-05-14T01:46:34;13.17;;;2.23;;
4174;SDS011;2101;48.290;14.382;2023-05-14T01:49:42;14.50;;;1.97;;
4174;SDS011;2101;48.290;14.382;2023-05-14T01:55:43;15.10;;;2.40;;
4174;SDS011;2101;48.290;14.382;2023-05-14T04:22:35;15.03;;;2.90;;
4174;SDS011;2101;48.290;14.382;2023-05-14T04:25:01;16.40;;;2.90;;
4174;SDS011;2101;48.290;14.382;2023-05-14T04:27:27;16.33;;;3.60;;
4174;SDS011;2101;48.290;14.382;2023-05-14T04:29:54;16.63;;;3.50;;
4174;SDS011;2101;48.290;14.382;2023-05-14T04:32:20;14.77;;;2.80;;
4174;SDS011;2101;48.290;14.382;2023-05-14T04:34:46;16.30;;;3.03;;
4174;SDS011;2101;48.290;14.382;2023-05-14T04:37:15;18.73;;;4.37;;
4174;SDS011;2101;48.290;14.382;2023-05-14T04:39:41;15.80;;;3.33;;
4174;SDS011;2101;48.290;14.382;2023-05-14T04:42:07;16.90;;;3.30;;
4174;SDS011;2101;48.290;14.382;2023-05-14T04:44:34;17.70;;;4.13;;
4174;SDS011;2101;48.290;14.382;2023-05-14T04:47:01;17.80;;;3.63;;
4174;SDS011;2101;48.290;14.382;2023-05-14T04:49:28;16.03;;;3.47;;
4174;SDS011;2101;48.290;14.382;2023-05-14T04:51:54;16.17;;;3.30;;
4174;SDS011;2101;48.290;14.382;2023-05-14T04:54:20;17.93;;;3.87;;
4174;SDS011;2101;48.290;14.382;2023-05-14T04:56:47;15.40;;;3.67;;
4174;SDS011;2101;48.290;14.382;2023-05-14T04:59:13;17.50;;;4.00;;
4174;SDS011;2101;48.290;14.382;2023-05-14T05:01:40;17.47;;;3.70;;
4174;SDS011;2101;48.290;14.382;2023-05-14T05:04:06;19.50;;;4.60;;
4174;SDS011;2101;48.290;14.382;2023-05-14T05:06:32;16.87;;;4.10;;
4174;SDS011;2101;48.290;14.382;2023-05-14T05:08:58;16.97;;;3.90;;
4174;SDS011;2101;48.290;14.382;2023-05-14T05:11:27;18.00;;;4.60;;
4174;SDS011;2101;48.290;14.382;2023-05-14T05:13:53;17.97;;;3.87;;
4174;SDS011;2101;48.290;14.382;2023-05-14T05:16:19;18.67;;;4.33;;
4174;SDS011;2101;48.290;14.382;2023-05-14T05:18:45;22.97;;;4.47;;
4174;SDS011;2101;48.290;14.382;2023-05-14T05:21:11;18.60;;;4.27;;
4174;SDS011;2101;48.290;14.382;2023-05-14T05:23:37;17.40;;;3.70;;
4174;SDS011;2101;48.290;14.382;2023-05-14T05:26:04;25.00;;;4.27;;
4174;SDS011;2101;48.290;14.382;2023-05-14T05:28:30;19.70;;;4.60;;
4174;SDS011;2101;48.290;14.382;2023-05-14T05:30:59;21.20;;;4.20;;
4174;SDS011;2101;48.290;14.382;2023-05-14T05:33:26;16.80;;;3.90;;
4174;SDS011;2101;48.290;14.382;2023-05-14T05:35:52;16.27;;;3.27;;
4174;SDS011;2101;48.290;14.382;2023-05-14T05:38:18;16.93;;;3.90;;
4174;SDS011;2101;48.290;14.382;2023-05-14T05:40:44;17.37;;;3.70;;
4174;SDS011;2101;48.290;14.382;2023-05-14T05:43:10;16.17;;;3.50;;
4174;SDS011;2101;48.290;14.382;2023-05-14T05:45:38;17.63;;;4.30;;
4174;SDS011;2101;48.290;14.382;2023-05-14T05:48:06;16.53;;;3.70;;
4174;SDS011;2101;48.290;14.382;2023-05-14T05:50:32;17.00;;;4.30;;
4174;SDS011;2101;48.290;14.382;2023-05-14T05:52:58;19.70;;;4.70;;
4174;SDS011;2101;48.290;14.382;2023-05-14T05:55:24;18.90;;;4.37;;
4174;SDS011;2101;48.290;14.382;2023-05-14T05:57:50;18.47;;;3.73;;
4174;SDS011;2101;48.290;14.382;2023-05-14T06:00:17;16.73;;;3.90;;
4174;SDS011;2101;48.290;14.382;2023-05-14T06:02:43;18.73;;;4.50;;
4174;SDS011;2101;48.290;14.382;2023-05-14T06:05:09;18.10;;;3.90;;
4174;SDS011;2101;48.290;14.382;2023-05-14T06:07:38;17.07;;;4.23;;
4174;SDS011;2101;48.290;14.382;2023-05-14T06:10:07;19.00;;;4.30;;
4174;SDS011;2101;48.290;14.382;2023-05-14T06:12:33;37.83;;;3.50;;
4174;SDS011;2101;48.290;14.382;2023-05-14T06:14:59;17.53;;;4.30;;
4174;SDS011;2101;48.290;14.382;2023-05-14T06:17:25;17.47;;;3.50;;
4174;SDS011;2101;48.290;14.382;2023-05-14T06:19:51;17.70;;;3.57;;
4174;SDS011;2101;48.290;14.382;2023-05-14T06:22:20;17.10;;;3.60;;
4174;SDS011;2101;48.290;14.382;2023-05-14T06:24:47;17.63;;;3.80;;
4174;SDS011;2101;48.290;14.382;2023-05-14T06:27:13;16.70;;;3.77;;
4174;SDS011;2101;48.290;14.382;2023-05-14T06:29:39;17.40;;;3.87;;
4174;SDS011;2101;48.290;14.382;2023-05-14T06:32:06;17.13;;;3.40;;
4174;SDS011;2101;48.290;14.382;2023-05-14T06:34:35;17.70;;;3.93;;
4174;SDS011;2101;48.290;14.382;2023-05-14T06:37:01;24.17;;;3.83;;
4174;SDS011;2101;48.290;14.382;2023-05-14T06:39:28;17.10;;;3.73;;
4174;SDS011;2101;48.290;14.382;2023-05-14T06:41:54;17.37;;;4.30;;
4174;SDS011;2101;48.290;14.382;2023-05-14T06:44:23;17.23;;;3.53;;
4174;SDS011;2101;48.290;14.382;2023-05-14T06:46:50;16.20;;;3.27;;
4174;SDS011;2101;48.290;14.382;2023-05-14T06:49:16;16.13;;;3.43;;
4174;SDS011;2101;48.290;14.382;2023-05-14T06:51:43;15.70;;;3.00;;
4174;SDS011;2101;48.290;14.382;2023-05-14T06:54:09;17.07;;;3.63;;
4174;SDS011;2101;48.290;14.382;2023-05-14T06:56:35;16.07;;;3.63;;
4174;SDS011;2101;48.290;14.382;2023-05-14T06:59:03;18.83;;;4.20;;
4174;SDS011;2101;48.290;14.382;2023-05-14T07:01:30;17.00;;;4.13;;
4174;SDS011;2101;48.290;14.382;2023-05-14T07:03:59;16.43;;;3.43;;
4174;SDS011;2101;48.290;14.382;2023-05-14T07:06:25;15.90;;;3.37;;
4174;SDS011;2101;48.290;14.382;2023-05-14T07:08:51;15.10;;;2.67;;
4174;SDS011;2101;48.290;14.382;2023-05-14T07:11:21;18.00;;;3.80;;
4174;SDS011;2101;48.290;14.382;2023-05-14T07:13:47;18.07;;;3.50;;
4174;SDS011;2101;48.290;14.382;2023-05-14T07:16:13;15.80;;;3.00;;
4174;SDS011;2101;48.290;14.382;2023-05-14T07:18:39;15.40;;;3.27;;
4174;SDS011;2101;48.290;14.382;2023-05-14T07:21:05;15.30;;;3.23;;
4174;SDS011;2101;48.290;14.382;2023-05-14T07:23:32;16.07;;;3.50;;
4174;SDS011;2101;48.290;14.382;2023-05-14T07:26:00;16.77;;;3.20;;
4174;SDS011;2101;48.290;14.382;2023-05-14T07:28:26;16.97;;;3.23;;
4174;SDS011;2101;48.290;14.382;2023-05-14T07:30:52;19.13;;;3.20;;
4174;SDS011;2101;48.290;14.382;2023-05-14T07:33:18;15.10;;;3.13;;
4174;SDS011;2101;48.290;14.382;2023-05-14T07:35:44;18.67;;;4.50;;
4174;SDS011;2101;48.290;14.382;2023-05-14T07:38:10;20.53;;;4.10;;
4174;SDS011;2101;48.290;14.382;2023-05-14T07:40:37;17.23;;;3.93;;
4174;SDS011;2101;48.290;14.382;2023-05-14T07:43:03;17.83;;;3.90;;
4174;SDS011;2101;48.290;14.382;2023-05-14T07:45:29;19.03;;;3.80;;
4174;SDS011;2101;48.290;14.382;2023-05-14T07:48:02;21.00;;;4.07;;
4174;SDS011;2101;48.290;14.382;2023-05-14T07:50:29;17.97;;;3.80;;
4174;SDS011;2101;48.290;14.382;2023-05-14T07:52:55;17.23;;;3.73;;
4174;SDS011;2101;48.290;14.382;2023-05-14T07:55:21;16.27;;;3.63;;
4174;SDS011;2101;48.290;14.382;2023-05-14T07:57:50;16.70;;;4.03;;
4174;SDS011;2101;48.290;14.382;2023-05-14T08:00:16;15.83;;;3.30;;
4174;SDS011;2101;48.290;14.382;2023-05-14T08:02:42;19.40;;;4.00;;
4174;SDS011;2101;48.290;14.382;2023-05-14T08:05:09;15.70;;;3.00;;
4174;SDS011;2101;48.290;14.382;2023-05-14T08:07:35;14.80;;;2.50;;
4174;SDS011;2101;48.290;14.382;2023-05-14T08:10:01;17.03;;;3.30;;
4174;SDS011;2101;48.290;14.382;2023-05-14T08:12:27;15.30;;;2.80;;
4174;SDS011;2101;48.290;14.382;2023-05-14T08:14:54;15.97;;;2.73;;
4174;SDS011;2101;48.290;14.382;2023-05-14T08:17:20;15.53;;;3.20;;
4174;SDS011;2101;48.290;14.382;2023-05-14T08:19:46;15.40;;;3.10;;
4174;SDS011;2101;48.290;14.382;2023-05-14T08:22:13;15.57;;;3.10;;
4174;SDS011;2101;48.290;14.382;2023-05-14T08:24:42;14.97;;;3.00;;
4174;SDS011;2101;48.290;14.382;2023-05-14T08:27:08;16.80;;;3.37;;
4174;SDS011;2101;48.290;14.382;2023-05-14T08:29:34;15.80;;;3.60;;
4174;SDS011;2101;48.290;14.382;2023-05-14T08:32:03;24.33;;;4.30;;
4174;SDS011;2101;48.290;14.382;2023-05-14T08:34:32;18.00;;;3.97;;
4174;SDS011;2101;48.290;14.382;2023-05-14T08:36:58;18.97;;;3.63;;
4174;SDS011;2101;48.290;14.382;2023-05-14T08:39:24;15.93;;;3.30;;
4174;SDS011;2101;48.290;14.382;2023-05-14T08:41:54;23.40;;;4.20;;
4174;SDS011;2101;48.290;14.382;2023-05-14T08:44:25;18.20;;;4.03;;
4174;SDS011;2101;48.290;14.382;2023-05-14T08:46:53;14.80;;;2.80;;
4174;SDS011;2101;48.290;14.382;2023-05-14T08:52:08;16.30;;;3.30;;
4174;SDS011;2101;48.290;14.382;2023-05-14T08:54:34;15.77;;;3.13;;
4174;SDS011;2101;48.290;14.382;2023-05-14T08:57:01;17.33;;;2.77;;
4174;SDS011;2101;48.290;14.382;2023-05-14T08:59:31;15.37;;;2.50;;
4174;SDS011;2101;48.290;14.382;2023-05-14T09:01:57;15.90;;;3.00;;
4174;SDS011;2101;48.290;14.382;2023-05-14T09:04:25;15.73;;;2.67;;
4174;SDS011;2101;48.290;14.382;2023-05-14T09:06:54;14.87;;;2.57;;
4174;SDS011;2101;48.290;14.382;2023-05-14T09:09:20;19.60;;;2.80;;
4174;SDS011;2101;48.290;14.382;2023-05-14T09:11:47;15.40;;;2.70;;
4174;SDS011;2101;48.290;14.382;2023-05-14T09:14:13;14.20;;;2.33;;
4174;SDS011;2101;48.290;14.382;2023-05-14T09:16:43;14.67;;;2.60;;
4174;SDS011;2101;48.290;14.382;2023-05-14T09:19:11;16.30;;;3.13;;
4174;SDS011;2101;48.290;14.382;2023-05-14T09:21:37;15.83;;;2.90;;
4174;SDS011;2101;48.290;14.382;2023-05-14T09:24:04;16.73;;;2.63;;
4174;SDS011;2101;48.290;14.382;2023-05-14T09:26:31;14.17;;;2.53;;
4174;SDS011;2101;48.290;14.382;2023-05-14T09:28:58;17.23;;;3.00;;
4174;SDS011;2101;48.290;14.382;2023-05-14T09:31:32;15.90;;;3.33;;
4174;SDS011;2101;48.290;14.382;2023-05-14T09:33:58;17.43;;;3.33;;
4174;SDS011;2101;48.290;14.382;2023-05-14T09:36:25;19.90;;;4.50;;
4174;SDS011;2101;48.290;14.382;2023-05-14T09:38:51;14.50;;;2.70;;
4174;SDS011;2101;48.290;14.382;2023-05-14T09:41:18;16.43;;;3.10;;
4174;SDS011;2101;48.290;14.382;2023-05-14T09:43:46;21.03;;;3.20;;
4174;SDS011;2101;48.290;14.382;2023-05-14T09:46:13;14.70;;;2.70;;
4174;SDS011;2101;48.290;14.382;2023-05-14T09:48:39;21.37;;;3.43;;
4174;SDS011;2101;48.290;14.382;2023-05-14T09:51:05;16.63;;;3.20;;
4174;SDS011;2101;48.290;14.382;2023-05-14T09:53:31;15.43;;;2.43;;
4174;SDS011;2101;48.290;14.382;2023-05-14T09:56:00;15.83;;;2.70;;
4174;SDS011;2101;48.290;14.382;2023-05-14T09:58:26;18.70;;;2.50;;
4174;SDS011;2101;48.290;14.382;2023-05-14T10:00:53;14.50;;;2.47;;
4174;SDS011;2101;48.290;14.382;2023-05-14T10:03:22;16.13;;;2.97;;
4174;SDS011;2101;48.290;14.382;2023-05-14T10:05:50;14.63;;;2.70;;
4174;SDS011;2101;48.290;14.382;2023-05-14T10:08:20;15.27;;;2.60;;
4174;SDS011;2101;48.290;14.382;2023-05-14T10:10:47;16.50;;;2.77;;
4174;SDS011;2101;48.290;14.382;2023-05-14T10:13:17;16.30;;;3.47;;
4174;SDS011;2101;48.290;14.382;2023-05-14T10:15:55;14.00;;;2.33;;
4174;SDS011;2101;48.290;14.382;2023-05-14T10:18:22;17.43;;;2.93;;
4174;SDS011;2101;48.290;14.382;2023-05-14T10:20:53;17.90;;;3.33;;
4174;SDS011;2101;48.290;14.382;2023-05-14T10:23:22;15.33;;;2.57;;
4174;SDS011;2101;48.290;14.382;2023-05-14T10:25:48;13.80;;;2.30;;
4174;SDS011;2101;48.290;14.382;2023-05-14T10:28:17;14.10;;;2.10;;
4174;SDS011;2101;48.290;14.382;2023-05-14T10:30:43;14.87;;;2.57;;
4174;SDS011;2101;48.290;14.382;2023-05-14T10:33:14;14.60;;;2.60;;
4174;SDS011;2101;48.290;14.382;2023-05-14T10:35:54;15.50;;;2.37;;
4174;SDS011;2101;48.290;14.382;2023-05-14T10:38:21;15.97;;;2.80;;
4174;SDS011;2101;48.290;14.382;2023-05-14T10:40:48;14.90;;;2.67;;
4174;SDS011;2101;48.290;14.382;2023-05-14T10:43:15;16.67;;;2.47;;
4174;SDS011;2101;48.290;14.382;2023-05-14T10:45:42;15.50;;;2.63;;
4174;SDS011;2101;48.290;14.382;2023-05-14T10:48:10;16.20;;;2.70;;
4174;SDS011;2101;48.290;14.382;2023-05-14T10:50:37;16.20;;;2.53;;
4174;SDS011;2101;48.290;14.382;2023-05-14T10:53:03;15.27;;;2.70;;
4174;SDS011;2101;48.290;14.382;2023-05-14T10:55:30;19.83;;;2.90;;
4174;SDS011;2101;48.290;14.382;2023-05-14T10:57:57;14.90;;;2.70;;
4174;SDS011;2101;48.290;14.382;2023-05-14T11:00:33;13.60;;;2.20;;
4174;SDS011;2101;48.290;14.382;2023-05-14T11:03:29;13.60;;;2.10;;
4174;SDS011;2101;48.290;14.382;2023-05-14T11:06:18;12.97;;;1.83;;
4174;SDS011;2101;48.290;14.382;2023-05-14T11:09:18;12.90;;;1.90;;
4174;SDS011;2101;48.290;14.382;2023-05-14T11:18:31;13.30;;;1.73;;
4174;SDS011;2101;48.290;14.382;2023-05-14T11:28:20;13.83;;;2.40;;
4174;SDS011;2101;48.290;14.382;2023-05-14T11:31:31;14.97;;;2.13;;
4174;SDS011;2101;48.290;14.382;2023-05-14T11:34:26;15.47;;;2.60;;
4174;SDS011;2101;48.290;14.382;2023-05-14T11:37:15;12.70;;;1.50;;
4174;SDS011;2101;48.290;14.382;2023-05-14T11:39:54;13.30;;;1.80;;
4174;SDS011;2101;48.290;14.382;2023-05-14T11:42:48;14.50;;;2.20;;
4174;SDS011;2101;48.290;14.382;2023-05-14T11:45:48;13.40;;;1.80;;
4174;SDS011;2101;48.290;14.382;2023-05-14T11:48:38;13.50;;;2.00;;
4174;SDS011;2101;48.290;14.382;2023-05-14T11:51:15;13.17;;;1.77;;
4174;SDS011;2101;48.290;14.382;2023-05-14T11:54:01;12.37;;;1.53;;
4174;SDS011;2101;48.290;14.382;2023-05-14T11:56:33;12.60;;;1.33;;
4174;SDS011;2101;48.290;14.382;2023-05-14T11:59:22;13.10;;;1.80;;
4174;SDS011;2101;48.290;14.382;2023-05-14T12:01:50;12.50;;;1.40;;
4174;SDS011;2101;48.290;14.382;2023-05-14T12:04:17;13.03;;;1.30;;
4174;SDS011;2101;48.290;14.382;2023-05-14T12:06:51;12.07;;;1.30;;
4174;SDS011;2101;48.290;14.382;2023-05-14T12:09:19;12.30;;;1.10;;
4174;SDS011;2101;48.290;14.382;2023-05-14T12:11:45;18.60;;;1.43;;
4174;SDS011;2101;48.290;14.382;2023-05-14T12:14:20;12.53;;;1.23;;
4174;SDS011;2101;48.290;14.382;2023-05-14T12:17:18;11.97;;;1.20;;
4174;SDS011;2101;48.290;14.382;2023-05-14T12:20:04;12.57;;;1.30;;
4174;SDS011;2101;48.290;14.382;2023-05-14T12:25:53;12.23;;;1.20;;
4174;SDS011;2101;48.290;14.382;2023-05-14T12:28:19;11.67;;;1.00;;
4174;SDS011;2101;48.290;14.382;2023-05-14T12:30:45;12.40;;;1.20;;
4174;SDS011;2101;48.290;14.382;2023-05-14T12:33:12;12.30;;;1.40;;
4174;SDS011;2101;48.290;14.382;2023-05-14T12:35:40;12.23;;;1.37;;
4174;SDS011;2101;48.290;14.382;2023-05-14T12:38:07;13.13;;;1.33;;
4174;SDS011;2101;48.290;14.382;2023-05-14T12:40:36;12.47;;;1.30;;
4174;SDS011;2101;48.290;14.382;2023-05-14T12:43:02;12.37;;;1.20;;
4174;SDS011;2101;48.290;14.382;2023-05-14T12:45:29;12.47;;;1.03;;
4174;SDS011;2101;48.290;14.382;2023-05-14T12:48:02;11.50;;;0.90;;
4174;SDS011;2101;48.290;14.382;2023-05-14T12:50:28;12.37;;;1.17;;
4174;SDS011;2101;48.290;14.382;2023-05-14T12:52:54;11.70;;;1.10;;
4174;SDS011;2101;48.290;14.382;2023-05-14T12:55:21;11.80;;;1.00;;
4174;SDS011;2101;48.290;14.382;2023-05-14T12:57:47;12.43;;;1.17;;
4174;SDS011;2101;48.290;14.382;2023-05-14T13:00:18;11.10;;;0.63;;
4174;SDS011;2101;48.290;14.382;2023-05-14T13:02:44;11.60;;;0.90;;
4174;SDS011;2101;48.290;14.382;2023-05-14T13:05:10;11.80;;;0.97;;
4174;SDS011;2101;48.290;14.382;2023-05-14T13:07:37;11.30;;;0.73;;
4174;SDS011;2101;48.290;14.382;2023-05-14T13:10:05;11.23;;;0.70;;
4174;SDS011;2101;48.290;14.382;2023-05-14T13:12:31;11.23;;;0.80;;
4174;SDS011;2101;48.290;14.382;2023-05-14T13:14:57;11.60;;;0.90;;
4174;SDS011;2101;48.290;14.382;2023-05-14T13:17:24;11.23;;;0.73;;
4174;SDS011;2101;48.290;14.382;2023-05-14T13:19:50;11.37;;;0.80;;
4174;SDS011;2101;48.290;14.382;2023-05-14T13:22:16;11.53;;;0.90;;
4174;SDS011;2101;48.290;14.382;2023-05-14T13:24:43;11.30;;;0.80;;
4174;SDS011;2101;48.290;14.382;2023-05-14T13:27:11;11.30;;;0.80;;
4174;SDS011;2101;48.290;14.382;2023-05-14T13:29:38;12.03;;;1.00;;
4174;SDS011;2101;48.290;14.382;2023-05-14T13:32:04;11.60;;;0.80;;
4174;SDS011;2101;48.290;14.382;2023-05-14T13:34:34;11.17;;;0.70;;
4174;SDS011;2101;48.290;14.382;2023-05-14T13:37:00;11.60;;;0.90;;
4174;SDS011;2101;48.290;14.382;2023-05-14T13:39:28;11.07;;;0.70;;
4174;SDS011;2101;48.290;14.382;2023-05-14T13:41:54;11.20;;;0.80;;
4174;SDS011;2101;48.290;14.382;2023-05-14T13:44:21;11.23;;;0.70;;
4174;SDS011;2101;48.290;14.382;2023-05-14T13:46:47;11.17;;;0.60;;
4174;SDS011;2101;48.290;14.382;2023-05-14T13:49:14;10.83;;;0.60;;
4174;SDS011;2101;48.290;14.382;2023-05-14T13:51:40;11.00;;;0.70;;
4174;SDS011;2101;48.290;14.382;2023-05-14T13:54:06;11.30;;;0.70;;
4174;SDS011;2101;48.290;14.382;2023-05-14T13:56:33;11.20;;;0.70;;
4174;SDS011;2101;48.290;14.382;2023-05-14T13:59:01;11.20;;;0.77;;
4174;SDS011;2101;48.290;14.382;2023-05-14T14:01:28;10.90;;;0.60;;
4174;SDS011;2101;48.290;14.382;2023-05-14T14:03:56;10.83;;;0.60;;
4174;SDS011;2101;48.290;14.382;2023-05-14T14:06:45;11.00;;;0.63;;
4174;SDS011;2101;48.290;14.382;2023-05-14T14:09:23;11.07;;;0.70;;
4174;SDS011;2101;48.290;14.382;2023-05-14T14:11:51;11.10;;;0.70;;
4174;SDS011;2101;48.290;14.382;2023-05-14T14:14:20;11.07;;;0.70;;
4174;SDS011;2101;48.290;14.382;2023-05-14T14:16:46;11.07;;;0.70;;
4174;SDS011;2101;48.290;14.382;2023-05-14T14:19:16;11.13;;;0.70;;
4174;SDS011;2101;48.290;14.382;2023-05-14T14:21:43;11.97;;;0.80;;
4174;SDS011;2101;48.290;14.382;2023-05-14T14:24:12;10.97;;;0.70;;
4174;SDS011;2101;48.290;14.382;2023-05-14T14:26:42;11.20;;;0.67;;
4174;SDS011;2101;48.290;14.382;2023-05-14T14:29:12;12.40;;;0.80;;
4174;SDS011;2101;48.290;14.382;2023-05-14T14:31:38;11.20;;;0.73;;
4174;SDS011;2101;48.290;14.382;2023-05-14T14:34:07;11.77;;;0.80;;
4174;SDS011;2101;48.290;14.382;2023-05-14T14:36:39;11.07;;;0.70;;
4174;SDS011;2101;48.290;14.382;2023-05-14T14:39:05;11.13;;;0.70;;
4174;SDS011;2101;48.290;14.382;2023-05-14T14:41:31;11.03;;;0.70;;
4174;SDS011;2101;48.290;14.382;2023-05-14T14:43:57;11.47;;;0.70;;
4174;SDS011;2101;48.290;14.382;2023-05-14T14:46:28;10.93;;;0.60;;
4174;SDS011;2101;48.290;14.382;2023-05-14T14:48:58;11.10;;;0.70;;
4174;SDS011;2101;48.290;14.382;2023-05-14T14:51:24;11.27;;;0.80;;
4174;SDS011;2101;48.290;14.382;2023-05-14T14:53:52;11.00;;;0.70;;
4174;SDS011;2101;48.290;14.382;2023-05-14T14:56:18;11.10;;;0.70;;
4174;SDS011;2101;48.290;14.382;2023-05-14T14:58:51;11.77;;;0.90;;
4174;SDS011;2101;48.290;14.382;2023-05-14T15:01:18;10.90;;;0.60;;
4174;SDS011;2101;48.290;14.382;2023-05-14T15:03:48;11.07;;;0.70;;
4174;SDS011;2101;48.290;14.382;2023-05-14T15:06:15;10.83;;;0.60;;
4174;SDS011;2101;48.290;14.382;2023-05-14T15:08:41;10.90;;;0.60;;
4174;SDS011;2101;48.290;14.382;2023-05-14T15:11:11;11.20;;;0.73;;
4174;SDS011;2101;48.290;14.382;2023-05-14T15:13:38;12.13;;;0.80;;
4174;SDS011;2101;48.290;14.382;2023-05-14T15:16:05;11.13;;;0.70;;
4174;SDS011;2101;48.290;14.382;2023-05-14T15:18:36;11.13;;;0.70;;
4174;SDS011;2101;48.290;14.382;2023-05-14T15:21:02;10.97;;;0.73;;
4174;SDS011;2101;48.290;14.382;2023-05-14T15:23:28;11.00;;;0.70;;
4174;SDS011;2101;48.290;14.382;2023-05-14T15:25:54;10.90;;;0.70;;
4174;SDS011;2101;48.290;14.382;2023-05-14T15:28:20;14.03;;;0.73;;
4174;SDS011;2101;48.290;14.382;2023-05-14T15:30:47;10.97;;;0.70;;
4174;SDS011;2101;48.290;14.382;2023-05-14T15:33:13;11.03;;;0.70;;
4174;SDS011;2101;48.290;14.382;2023-05-14T15:35:43;11.40;;;0.80;;
4174;SDS011;2101;48.290;14.382;2023-05-14T15:38:09;11.60;;;0.93;;
4174;SDS011;2101;48.290;14.382;2023-05-14T15:40:35;12.27;;;0.90;;
4174;SDS011;2101;48.290;14.382;2023-05-14T15:43:01;11.30;;;0.70;;
4174;SDS011;2101;48.290;14.382;2023-05-14T15:45:27;12.20;;;0.70;;
4174;SDS011;2101;48.290;14.382;2023-05-14T15:47:53;10.80;;;0.63;;
4174;SDS011;2101;48.290;14.382;2023-05-14T15:50:19;11.60;;;0.70;;
4174;SDS011;2101;48.290;14.382;2023-05-14T15:52:46;10.90;;;0.60;;
4174;SDS011;2101;48.290;14.382;2023-05-14T15:55:12;14.80;;;0.90;;
4174;SDS011;2101;48.290;14.382;2023-05-14T15:57:40;11.20;;;0.77;;
4174;SDS011;2101;48.290;14.382;2023-05-14T16:00:06;11.00;;;0.80;;
4174;SDS011;2101;48.290;14.382;2023-05-14T16:02:36;11.30;;;0.80;;
4174;SDS011;2101;48.290;14.382;2023-05-14T16:05:02;11.10;;;0.77;;
4174;SDS011;2101;48.290;14.382;2023-05-14T16:07:28;10.80;;;0.70;;
4174;SDS011;2101;48.290;14.382;2023-05-14T16:09:54;12.10;;;0.70;;
4174;SDS011;2101;48.290;14.382;2023-05-14T16:12:20;11.20;;;0.80;;
4174;SDS011;2101;48.290;14.382;2023-05-14T16:14:46;12.00;;;0.80;;
4174;SDS011;2101;48.290;14.382;2023-05-14T16:17:12;11.07;;;0.70;;
4174;SDS011;2101;48.290;14.382;2023-05-14T16:19:39;11.30;;;0.80;;
4174;SDS011;2101;48.290;14.382;2023-05-14T16:22:05;11.30;;;0.90;;
4174;SDS011;2101;48.290;14.382;2023-05-14T16:24:31;10.90;;;0.70;;
4174;SDS011;2101;48.290;14.382;2023-05-14T16:26:57;10.90;;;0.70;;
4174;SDS011;2101;48.290;14.382;2023-05-14T16:29:24;11.30;;;0.80;;
4174;SDS011;2101;48.290;14.382;2023-05-14T16:31:50;11.10;;;0.80;;
4174;SDS011;2101;48.290;14.382;2023-05-14T16:34:16;11.10;;;0.70;;
4174;SDS011;2101;48.290;14.382;2023-05-14T16:36:42;16.87;;;4.10;;
4174;SDS011;2101;48.290;14.382;2023-05-14T16:39:08;21.30;;;6.60;;
4174;SDS011;2101;48.290;14.382;2023-05-14T16:41:37;12.80;;;1.40;;
4174;SDS011;2101;48.290;14.382;2023-05-14T16:44:03;12.33;;;1.00;;
4174;SDS011;2101;48.290;14.382;2023-05-14T16:46:29;15.43;;;0.90;;
4174;SDS011;2101;48.290;14.382;2023-05-14T16:48:56;11.53;;;0.90;;
4174;SDS011;2101;48.290;14.382;2023-05-14T16:51:22;11.20;;;0.93;;
4174;SDS011;2101;48.290;14.382;2023-05-14T16:53:48;11.90;;;0.90;;
4174;SDS011;2101;48.290;14.382;2023-05-14T16:56:14;15.47;;;1.23;;
4174;SDS011;2101;48.290;14.382;2023-05-14T16:58:40;11.20;;;0.90;;
4174;SDS011;2101;48.290;14.382;2023-05-14T17:01:08;12.57;;;1.00;;
4174;SDS011;2101;48.290;14.382;2023-05-14T17:03:36;11.60;;;1.00;;
4174;SDS011;2101;48.290;14.382;2023-05-14T17:06:05;11.60;;;1.10;;
4174;SDS011;2101;48.290;14.382;2023-05-14T17:08:33;11.37;;;1.00;;
4174;SDS011;2101;48.290;14.382;2023-05-14T17:11:00;13.40;;;1.30;;
4174;SDS011;2101;48.290;14.382;2023-05-14T17:13:36;12.67;;;0.87;;
4174;SDS011;2101;48.290;14.382;2023-05-14T17:16:02;13.70;;;1.20;;
4174;SDS011;2101;48.290;14.382;2023-05-14T17:18:28;12.37;;;1.60;;
4174;SDS011;2101;48.290;14.382;2023-05-14T17:20:54;12.87;;;1.33;;
4174;SDS011;2101;48.290;14.382;2023-05-14T17:23:20;13.67;;;1.60;;
4174;SDS011;2101;48.290;14.382;2023-05-14T17:25:46;12.10;;;1.47;;
4174;SDS011;2101;48.290;14.382;2023-05-14T17:28:13;11.50;;;1.20;;
4174;SDS011;2101;48.290;14.382;2023-05-14T17:30:39;11.60;;;1.13;;
4174;SDS011;2101;48.290;14.382;2023-05-14T17:33:05;12.13;;;1.40;;
4174;SDS011;2101;48.290;14.382;2023-05-14T17:35:31;11.90;;;1.30;;
4174;SDS011;2101;48.290;14.382;2023-05-14T17:38:01;11.47;;;1.40;;
4174;SDS011;2101;48.290;14.382;2023-05-14T17:40:27;11.37;;;0.97;;
4174;SDS011;2101;48.290;14.382;2023-05-14T17:42:57;13.00;;;1.40;;
4174;SDS011;2101;48.290;14.382;2023-05-14T17:45:23;12.03;;;1.30;;
4174;SDS011;2101;48.290;14.382;2023-05-14T17:47:51;12.43;;;1.70;;
4174;SDS011;2101;48.290;14.382;2023-05-14T17:50:17;12.37;;;1.37;;
4174;SDS011;2101;48.290;14.382;2023-05-14T17:52:44;12.57;;;1.67;;
4174;SDS011;2101;48.290;14.382;2023-05-14T17:55:12;12.70;;;1.63;;
4174;SDS011;2101;48.290;14.382;2023-05-14T17:57:52;12.07;;;1.33;;
4174;SDS011;2101;48.290;14.382;2023-05-14T18:00:22;13.10;;;1.33;;
4174;SDS011;2101;48.290;14.382;2023-05-14T18:02:48;11.73;;;1.20;;
4174;SDS011;2101;48.290;14.382;2023-05-14T18:05:17;12.30;;;1.40;;
4174;SDS011;2101;48.290;14.382;2023-05-14T18:07:49;12.13;;;1.63;;
4174;SDS011;2101;48.290;14.382;2023-05-14T18:10:35;12.00;;;1.40;;
4174;SDS011;2101;48.290;14.382;2023-05-14T18:13:17;14.07;;;1.90;;
4174;SDS011;2101;48.290;14.382;2023-05-14T18:18:42;12.03;;;1.57;;
4174;SDS011;2101;48.290;14.382;2023-05-14T18:21:48;14.43;;;1.97;;
4174;SDS011;2101;48.290;14.382;2023-05-14T19:28:05;14.13;;;2.33;;
4174;SDS011;2101;48.290;14.382;2023-05-14T19:30:56;13.90;;;2.67;;
4174;SDS011;2101;48.290;14.382;2023-05-14T19:33:24;17.90;;;3.13;;
4174;SDS011;2101;48.290;14.382;2023-05-14T19:35:50;13.00;;;1.93;;
4174;SDS011;2101;48.290;14.382;2023-05-14T19:38:16;14.63;;;2.43;;